Terminal Aerodrome Forecast
Issued by NWS Greer, SC

Home | Current Version | Previous Version | Text Only | Print | Product List | Glossary On
Versions: 1 2 3 4 5 6 7 8 9 10 11 12 13 14 15 16
000
FTUS42 KGSP 292339
TAFGSP
TAF
KGSP 292339Z 3000/3024 22006KT P6SM BKN080
     FM300500 26006KT P6SM BKN050
     FM300800 31008KT P6SM SCT250
     FM301700 33012G20KT P6SM FEW250
     FM302300 34008KT P6SM SKC=

USA.gov is the U.S. government's official web portal to all federal, state and local government web resources and services.